createdAt,value
2018-11-01T00:00:47.017Z,6.33
2018-11-01T00:03:16.092Z,7.40
2018-11-01T00:05:45.116Z,6.70
2018-11-01T00:08:14.099Z,6.20
2018-11-01T00:10:43.119Z,6.20
2018-11-01T00:13:12.150Z,7.03
2018-11-01T00:15:41.207Z,6.40
2018-11-01T00:18:10.195Z,7.53
2018-11-01T00:20:39.226Z,6.80
2018-11-01T00:23:08.237Z,6.63
2018-11-01T00:25:37.241Z,5.87
2018-11-01T00:28:06.264Z,5.93
2018-11-01T00:30:35.265Z,6.17
2018-11-01T00:33:04.419Z,7.03
2018-11-01T00:35:33.443Z,6.50
2018-11-01T00:38:02.443Z,6.07
2018-11-01T00:40:31.472Z,6.50
2018-11-01T00:43:00.462Z,5.37
2018-11-01T00:45:29.545Z,6.20
2018-11-01T00:47:58.545Z,6.60
2018-11-01T00:50:27.550Z,5.17
2018-11-01T00:52:56.552Z,5.13
2018-11-01T00:55:25.560Z,6.33
2018-11-01T00:57:54.570Z,5.43
2018-11-01T01:00:23.672Z,6.23
2018-11-01T01:02:52.660Z,5.70
2018-11-01T01:05:21.664Z,5.33
2018-11-01T01:07:50.647Z,5.67
2018-11-01T01:10:19.646Z,5.70
2018-11-01T01:12:49.114Z,5.53
2018-11-01T01:15:18.130Z,5.03
2018-11-01T01:17:47.124Z,7.27
2018-11-01T01:20:17.135Z,4.17
2018-11-01T01:22:46.821Z,4.77
2018-11-01T01:25:17.781Z,5.03
2018-11-01T01:27:46.856Z,5.53
2018-11-01T01:30:19.678Z,4.37
2018-11-01T01:32:49.110Z,4.47
2018-11-01T01:35:18.291Z,4.70
2018-11-01T01:37:47.364Z,5.13
2018-11-01T01:40:17.579Z,6.17
2018-11-01T01:42:50.232Z,4.37
2018-11-01T01:45:19.303Z,4.70
2018-11-01T01:47:48.396Z,5.37
2018-11-01T01:50:18.028Z,6.37
2018-11-01T01:52:47.348Z,5.00
2018-11-01T01:55:16.466Z,5.00
2018-11-01T01:57:45.486Z,4.47
2018-11-01T02:00:15.980Z,4.87
2018-11-01T02:02:48.147Z,4.47
2018-11-01T02:05:17.203Z,4.10
2018-11-01T02:07:46.218Z,4.80
2018-11-01T02:10:16.160Z,4.13
2018-11-01T02:12:45.183Z,4.10
2018-11-01T02:15:17.232Z,4.13
2018-11-01T02:17:47.453Z,4.43
2018-11-01T02:20:17.721Z,4.17
2018-11-01T02:22:46.993Z,4.97
2018-11-01T02:25:16.013Z,4.20
2018-11-01T02:27:50.277Z,4.57
2018-11-01T02:30:19.442Z,3.70
2018-11-01T02:32:48.491Z,5.07
2018-11-01T02:35:18.739Z,3.77
2018-11-01T02:37:47.810Z,4.30
2018-11-01T02:40:17.244Z,3.83
2018-11-01T02:42:46.345Z,4.10
2018-11-01T02:45:15.816Z,3.80
2018-11-01T02:47:44.815Z,3.80
2018-11-01T02:50:14.238Z,5.00
2018-11-01T02:52:43.265Z,6.97
2018-11-01T02:55:12.283Z,4.03
2018-11-01T02:57:41.284Z,4.10
2018-11-01T03:00:11.496Z,4.20
2018-11-01T03:02:40.618Z,5.40
2018-11-01T03:05:10.435Z,4.27
2018-11-01T03:07:39.484Z,4.00
2018-11-01T03:10:09.865Z,6.07
2018-11-01T03:12:39.135Z,4.57
2018-11-01T03:15:09.591Z,4.00
2018-11-01T03:17:38.609Z,4.10
2018-11-01T03:20:08.222Z,4.37
2018-11-01T03:22:37.300Z,4.00
2018-11-01T03:25:07.079Z,4.10
2018-11-01T03:27:36.110Z,4.27
2018-11-01T03:30:05.693Z,5.07
2018-11-01T03:32:34.690Z,4.57
2018-11-01T03:35:03.688Z,6.23
2018-11-01T03:37:32.691Z,6.07
2018-11-01T03:40:01.686Z,6.00
2018-11-01T03:42:30.725Z,6.53
2018-11-01T03:44:59.778Z,8.73
2018-11-01T03:47:28.764Z,6.37
2018-11-01T03:49:57.772Z,6.30
2018-11-01T03:52:26.769Z,8.50
2018-11-01T03:54:55.749Z,7.13
2018-11-01T03:57:24.760Z,6.27
2018-11-01T03:59:53.761Z,11.40
2018-11-01T04:02:22.728Z,15.27
2018-11-01T04:04:51.744Z,14.60
2018-11-01T04:07:20.788Z,12.47
2018-11-01T04:09:49.799Z,11.90
2018-11-01T04:12:25.383Z,9.57
2018-11-01T04:14:54.437Z,9.97
2018-11-01T04:17:23.410Z,9.63
2018-11-01T04:19:52.445Z,6.97
2018-11-01T04:22:21.444Z,5.97
2018-11-01T04:24:50.507Z,4.50
2018-11-01T04:27:19.508Z,4.87
2018-11-01T04:29:48.518Z,5.57
2018-11-01T04:32:17.516Z,4.97
2018-11-01T04:34:46.528Z,6.90
2018-11-01T04:37:15.531Z,6.20
2018-11-01T04:39:44.548Z,3.80
2018-11-01T04:42:13.548Z,4.73
2018-11-01T04:44:42.562Z,4.70
2018-11-01T04:47:11.575Z,5.37
2018-11-01T04:49:40.660Z,5.07
2018-11-01T04:52:09.666Z,3.60
2018-11-01T04:54:38.662Z,4.77
2018-11-01T04:57:07.654Z,3.80
2018-11-01T04:59:36.667Z,4.17
2018-11-01T05:02:05.670Z,4.37
2018-11-01T05:04:34.684Z,3.97
2018-11-01T05:07:03.695Z,3.40
2018-11-01T05:09:32.729Z,4.20
2018-11-01T05:12:01.749Z,4.13
2018-11-01T05:14:30.733Z,3.50
2018-11-01T05:16:59.743Z,3.90
2018-11-01T05:19:28.763Z,3.40
2018-11-01T05:21:57.771Z,4.27
2018-11-01T05:24:26.802Z,3.17
2018-11-01T05:26:55.803Z,3.57
2018-11-01T05:29:24.829Z,4.00
2018-11-01T05:31:53.812Z,3.00
2018-11-01T05:34:22.843Z,3.87
2018-11-01T05:36:51.862Z,4.50
2018-11-01T05:39:20.876Z,3.07
2018-11-01T05:41:49.869Z,3.10
2018-11-01T05:44:18.931Z,2.90
2018-11-01T05:46:47.915Z,2.80
2018-11-01T05:49:16.979Z,4.00
2018-11-01T05:51:46.065Z,3.10
2018-11-01T05:54:16.367Z,2.70
2018-11-01T05:56:45.661Z,2.80
2018-11-01T05:59:14.987Z,3.47
2018-11-01T06:01:49.172Z,3.33
2018-11-01T06:04:18.360Z,4.07
2018-11-01T06:06:47.379Z,2.90
2018-11-01T06:09:21.852Z,3.77
2018-11-01T06:11:51.092Z,2.87
2018-11-01T06:14:20.179Z,4.37
2018-11-01T06:16:49.382Z,2.73
2018-11-01T06:19:18.490Z,3.70
2018-11-01T06:21:47.599Z,3.20
2018-11-01T06:24:16.834Z,3.37
2018-11-01T06:26:45.840Z,5.77
2018-11-01T06:29:15.024Z,2.87
2018-11-01T06:31:44.020Z,3.27
2018-11-01T06:34:22.830Z,5.07
2018-11-01T06:36:52.051Z,3.27
2018-11-01T06:39:21.328Z,6.37
2018-11-01T06:41:51.564Z,3.60
2018-11-01T06:44:20.739Z,3.23
2018-11-01T06:46:49.878Z,3.30
2018-11-01T06:49:19.880Z,3.77
2018-11-01T06:51:49.468Z,3.30
2018-11-01T06:54:18.594Z,3.30
2018-11-01T06:56:47.678Z,3.90
2018-11-01T06:59:18.119Z,3.50
2018-11-01T07:01:46.902Z,3.67
2018-11-01T07:04:16.018Z,3.00
2018-11-01T07:06:45.007Z,3.13
2018-11-01T07:09:14.432Z,3.20
2018-11-01T07:11:43.921Z,4.07
2018-11-01T07:14:12.933Z,6.30
2018-11-01T07:16:41.959Z,2.87
2018-11-01T07:19:10.936Z,3.17
2018-11-01T07:21:40.446Z,3.50
2018-11-01T07:24:09.444Z,3.27
2018-11-01T07:26:38.473Z,3.93
2018-11-01T07:29:07.540Z,2.97
2018-11-01T07:31:36.555Z,3.37
2018-11-01T07:34:06.048Z,5.73
2018-11-01T07:36:35.059Z,4.53
2018-11-01T07:39:05.313Z,5.87
2018-11-01T07:41:34.351Z,3.50
2018-11-01T07:44:03.586Z,3.00
2018-11-01T07:46:32.625Z,3.57
2018-11-01T07:49:01.632Z,3.40
2018-11-01T07:51:30.823Z,3.53
2018-11-01T07:53:59.823Z,4.30
2018-11-01T07:56:28.834Z,3.57
2018-11-01T07:58:57.835Z,3.40
2018-11-01T08:01:28.037Z,3.47
2018-11-01T08:03:57.518Z,4.07
2018-11-01T08:06:26.545Z,4.67
2018-11-01T08:08:55.577Z,4.20
2018-11-01T08:11:24.591Z,3.60
2018-11-01T08:13:53.589Z,3.50
2018-11-01T08:16:22.613Z,4.30
2018-11-01T08:18:51.653Z,3.90
2018-11-01T08:21:20.790Z,3.77
2018-11-01T08:23:49.783Z,3.60
2018-11-01T08:26:18.827Z,4.60
2018-11-01T08:28:48.014Z,4.83
2018-11-01T08:31:17.060Z,3.93
2018-11-01T08:33:46.127Z,3.70
2018-11-01T08:36:15.133Z,4.00
2018-11-01T08:38:44.182Z,4.60
2018-11-01T08:41:14.389Z,3.43
2018-11-01T08:43:44.594Z,3.77
2018-11-01T08:46:14.090Z,3.40
2018-11-01T08:48:43.306Z,3.67
2018-11-01T08:51:12.470Z,3.40
2018-11-01T08:53:41.496Z,4.63
2018-11-01T08:56:10.600Z,3.70
2018-11-01T08:58:39.893Z,3.73
2018-11-01T09:01:08.897Z,3.10
2018-11-01T09:03:37.911Z,3.33
2018-11-01T09:06:06.897Z,3.37
2018-11-01T09:08:35.962Z,5.23
2018-11-01T09:11:05.345Z,3.87
2018-11-01T09:13:34.377Z,3.30
2018-11-01T09:16:03.414Z,4.40
2018-11-01T09:18:32.462Z,3.30
2018-11-01T09:21:01.492Z,3.40
2018-11-01T09:23:30.500Z,4.10
2018-11-01T09:25:59.516Z,3.33
2018-11-01T09:28:28.526Z,3.20
2018-11-01T09:30:57.506Z,2.60
2018-11-01T09:33:26.528Z,4.07
2018-11-01T09:35:55.587Z,3.03
2018-11-01T09:38:24.596Z,3.90
2018-11-01T09:40:53.652Z,3.57
2018-11-01T09:43:22.672Z,3.47
2018-11-01T09:45:51.729Z,3.57
2018-11-01T09:48:20.740Z,3.23
2018-11-01T09:50:49.766Z,3.43
2018-11-01T09:53:18.808Z,3.23
2018-11-01T09:55:47.893Z,3.27
2018-11-01T09:58:16.852Z,3.03
2018-11-01T10:00:45.957Z,4.60
2018-11-01T10:03:15.056Z,4.07
2018-11-01T10:05:44.058Z,3.00
2018-11-01T10:08:13.093Z,4.17
2018-11-01T10:10:42.169Z,4.13
2018-11-01T10:13:11.202Z,3.47
2018-11-01T10:15:40.564Z,4.00
2018-11-01T10:18:09.887Z,3.83
2018-11-01T10:20:38.506Z,2.77
2018-11-01T10:23:07.579Z,3.47
2018-11-01T10:25:36.581Z,2.83
2018-11-01T10:28:06.087Z,4.50
2018-11-01T10:30:35.083Z,3.07
2018-11-01T10:33:04.190Z,2.60
2018-11-01T10:35:34.425Z,2.87
2018-11-01T10:38:03.484Z,2.80
2018-11-01T10:40:32.515Z,2.60
2018-11-01T10:43:01.548Z,3.53
2018-11-01T10:45:30.690Z,4.80
2018-11-01T10:47:59.726Z,3.20
2018-11-01T10:50:28.769Z,3.97
2018-11-01T10:53:04.516Z,2.90
2018-11-01T10:55:33.524Z,3.50
2018-11-01T10:58:02.553Z,2.80
2018-11-01T11:00:37.576Z,3.30
2018-11-01T11:03:06.522Z,2.73
2018-11-01T11:05:35.569Z,3.60
2018-11-01T11:08:04.695Z,3.47
2018-11-01T11:10:34.446Z,2.60
2018-11-01T11:13:03.548Z,2.53
2018-11-01T11:15:32.546Z,2.73
2018-11-01T11:18:01.568Z,2.60
2018-11-01T11:20:30.894Z,2.43
2018-11-01T11:22:59.729Z,2.47
2018-11-01T11:25:28.783Z,2.80
2018-11-01T11:27:58.414Z,3.70
2018-11-01T11:30:27.778Z,2.40
2018-11-01T11:32:56.538Z,5.20
2018-11-01T11:35:25.600Z,2.37
2018-11-01T11:37:54.586Z,2.27
2018-11-01T11:40:25.192Z,2.90
2018-11-01T11:42:54.224Z,2.57
2018-11-01T11:45:23.240Z,2.53
2018-11-01T11:47:52.261Z,3.03
2018-11-01T11:50:21.267Z,2.40
2018-11-01T11:52:50.266Z,3.53
2018-11-01T11:55:19.290Z,2.43
2018-11-01T11:57:49.963Z,2.43
2018-11-01T12:00:18.979Z,2.80
2018-11-01T12:02:47.983Z,2.77
2018-11-01T12:05:17.126Z,2.80
2018-11-01T12:07:46.793Z,3.47
2018-11-01T12:10:15.846Z,2.93
2018-11-01T12:12:44.891Z,3.23
2018-11-01T12:15:13.912Z,2.20
2018-11-01T12:17:42.926Z,2.30
2018-11-01T12:20:13.376Z,2.77
2018-11-01T12:22:42.447Z,2.93
2018-11-01T12:25:11.846Z,2.60
2018-11-01T12:27:42.348Z,2.50
2018-11-01T12:30:12.129Z,3.27
2018-11-01T12:32:41.170Z,3.80
2018-11-01T12:35:10.769Z,3.83
2018-11-01T12:37:39.843Z,2.73
2018-11-01T12:40:10.535Z,2.70
2018-11-01T12:42:39.597Z,3.90
2018-11-01T12:45:10.051Z,3.17
2018-11-01T12:47:39.322Z,2.70
2018-11-01T12:50:10.108Z,3.27
2018-11-01T12:52:39.204Z,3.80
2018-11-01T12:55:08.347Z,3.53
2018-11-01T12:57:37.444Z,4.13
2018-11-01T13:00:07.767Z,3.57
2018-11-01T13:02:36.795Z,3.97
2018-11-01T13:05:05.993Z,5.50
2018-11-01T13:07:35.109Z,5.00
2018-11-01T13:10:04.449Z,3.80
2018-11-01T13:12:34.522Z,3.60
2018-11-01T13:15:03.737Z,4.40
2018-11-01T13:17:32.783Z,3.57
2018-11-01T13:20:02.285Z,3.77
2018-11-01T13:22:31.327Z,3.30
2018-11-01T13:25:00.373Z,3.80
2018-11-01T13:27:29.393Z,3.13
2018-11-01T13:29:58.411Z,3.97
2018-11-01T13:32:27.450Z,5.90
2018-11-01T13:34:56.583Z,4.77
2018-11-01T13:37:25.728Z,4.17
2018-11-01T13:39:54.842Z,4.27
2018-11-01T13:42:23.823Z,4.53
2018-11-01T13:44:52.883Z,3.47
2018-11-01T13:47:22.030Z,4.70
2018-11-01T13:49:51.464Z,3.30
2018-11-01T13:52:20.474Z,3.37
2018-11-01T13:54:49.635Z,4.37
2018-11-01T13:57:18.894Z,3.20
2018-11-01T13:59:47.933Z,3.63
2018-11-01T14:02:16.982Z,4.23
2018-11-01T14:04:45.998Z,6.57
2018-11-01T14:07:15.003Z,3.43
2018-11-01T14:09:44.032Z,2.90
2018-11-01T14:12:13.108Z,3.43
2018-11-01T14:14:42.449Z,2.60
2018-11-01T14:17:11.162Z,5.00
2018-11-01T14:19:40.200Z,4.27
2018-11-01T14:22:09.218Z,3.30
2018-11-01T14:24:38.219Z,3.00
2018-11-01T14:27:07.231Z,4.43
2018-11-01T14:29:36.230Z,4.33
2018-11-01T14:32:05.292Z,5.07
2018-11-01T14:34:34.292Z,3.60
2018-11-01T14:37:03.373Z,4.70
2018-11-01T14:39:32.419Z,5.93
2018-11-01T14:42:01.434Z,4.10
2018-11-01T14:44:30.492Z,6.07
2018-11-01T14:46:59.434Z,4.37
2018-11-01T14:49:28.424Z,4.77
2018-11-01T14:51:57.828Z,4.93
2018-11-01T14:54:27.569Z,3.97
2018-11-01T14:56:57.233Z,6.30
2018-11-01T14:59:25.921Z,5.17
2018-11-01T15:01:53.541Z,5.10
2018-11-01T15:04:23.421Z,5.10
2018-11-01T15:06:52.441Z,5.47
2018-11-01T15:09:21.507Z,4.47
2018-11-01T15:11:50.587Z,4.53
2018-11-01T15:14:19.655Z,4.90
2018-11-01T15:16:48.690Z,4.23
2018-11-01T15:19:17.795Z,5.30
2018-11-01T15:21:46.713Z,4.63
2018-11-01T15:24:15.750Z,4.50
2018-11-01T15:26:44.800Z,4.83
2018-11-01T15:29:13.843Z,5.10
2018-11-01T15:31:42.859Z,4.40
2018-11-01T15:34:11.878Z,4.00
2018-11-01T15:36:40.889Z,4.23
2018-11-01T15:39:11.059Z,4.83
2018-11-01T15:41:40.098Z,4.40
2018-11-01T15:44:09.110Z,4.53
2018-11-01T15:46:38.240Z,4.63
2018-11-01T15:49:07.464Z,5.77
2018-11-01T15:51:36.507Z,4.90
2018-11-01T15:54:05.583Z,4.60
2018-11-01T15:56:34.584Z,4.17
2018-11-01T15:59:03.659Z,4.90
2018-11-01T16:01:32.704Z,4.60
2018-11-01T16:04:01.774Z,4.90
2018-11-01T16:06:30.768Z,4.10
2018-11-01T16:08:59.817Z,3.67
2018-11-01T16:11:28.861Z,4.40
2018-11-01T16:13:59.177Z,5.03
2018-11-01T16:16:28.627Z,3.80
2018-11-01T16:18:57.655Z,4.37
2018-11-01T16:21:26.664Z,3.80
2018-11-01T16:23:55.700Z,4.67
2018-11-01T16:26:24.738Z,4.97
2018-11-01T16:28:53.762Z,4.27
2018-11-01T16:31:22.792Z,3.60
2018-11-01T16:33:51.778Z,4.40
2018-11-01T16:36:20.842Z,4.07
2018-11-01T16:38:49.847Z,4.70
2018-11-01T16:41:19.064Z,4.70
2018-11-01T16:43:48.212Z,4.30
2018-11-01T16:46:17.375Z,4.70
2018-11-01T16:48:46.359Z,4.73
2018-11-01T16:51:16.591Z,4.67
2018-11-01T16:53:45.637Z,4.47
2018-11-01T16:56:14.636Z,4.37
2018-11-01T16:58:43.657Z,4.73
2018-11-01T17:01:12.700Z,5.03
2018-11-01T17:03:41.839Z,4.07
2018-11-01T17:06:12.509Z,4.20
2018-11-01T17:08:41.620Z,5.10
2018-11-01T17:11:10.615Z,4.00
2018-11-01T17:13:39.622Z,4.60
2018-11-01T17:16:08.734Z,4.00
2018-11-01T17:18:37.759Z,4.47
2018-11-01T17:21:06.819Z,4.33
2018-11-01T17:23:35.825Z,4.03
2018-11-01T17:26:04.957Z,4.17
2018-11-01T17:28:33.987Z,3.67
2018-11-01T17:31:03.022Z,4.10
2018-11-01T17:33:32.043Z,4.20
2018-11-01T17:36:01.253Z,4.40
2018-11-01T17:38:30.872Z,4.50
2018-11-01T17:40:59.894Z,4.03
2018-11-01T17:43:28.969Z,4.83
2018-11-01T17:45:57.976Z,4.23
2018-11-01T17:48:26.991Z,4.93
2018-11-01T17:50:56.003Z,5.03
2018-11-01T17:53:25.983Z,4.70
2018-11-01T17:55:55.149Z,4.33
2018-11-01T17:58:24.162Z,4.93
2018-11-01T18:00:53.723Z,5.33
2018-11-01T18:03:22.750Z,5.67
2018-11-01T18:05:51.767Z,5.03
2018-11-01T18:08:20.958Z,5.47
2018-11-01T18:10:49.900Z,5.10
2018-11-01T18:13:18.917Z,5.90
2018-11-01T18:15:47.959Z,4.83
2018-11-01T18:18:16.999Z,4.77
2018-11-01T18:20:46.002Z,4.50
2018-11-01T18:23:15.110Z,4.03
2018-11-01T18:25:50.197Z,4.50
2018-11-01T18:28:20.255Z,4.23
2018-11-01T18:30:51.494Z,5.37
2018-11-01T18:33:20.784Z,6.13
2018-11-01T18:35:50.146Z,4.43
2018-11-01T18:38:19.432Z,4.63
2018-11-01T18:40:49.575Z,4.90
2018-11-01T18:43:18.582Z,5.17
2018-11-01T18:45:47.646Z,5.27
2018-11-01T18:48:16.714Z,7.63
2018-11-01T18:50:45.912Z,6.50
2018-11-01T18:53:15.580Z,6.50
2018-11-01T18:55:44.607Z,7.30
2018-11-01T18:58:13.597Z,6.20
2018-11-01T19:00:42.643Z,7.47
2018-11-01T19:03:11.687Z,7.30
2018-11-01T19:05:40.697Z,11.00
2018-11-01T19:08:11.324Z,8.53
2018-11-01T19:10:40.362Z,10.17
2018-11-01T19:13:09.407Z,10.57
2018-11-01T19:15:38.445Z,8.77
2018-11-01T19:18:07.489Z,7.10
2018-11-01T19:20:36.537Z,7.70
2018-11-01T19:23:05.887Z,7.83
2018-11-01T19:25:34.961Z,8.93
2018-11-01T19:28:04.092Z,9.70
2018-11-01T19:30:33.036Z,8.07
2018-11-01T19:33:03.408Z,9.50
2018-11-01T19:35:32.506Z,9.40
2018-11-01T19:38:01.516Z,11.30
2018-11-01T19:40:30.722Z,11.40
2018-11-01T19:42:59.603Z,12.30
2018-11-01T19:45:28.623Z,11.57
2018-11-01T19:47:57.716Z,11.63
2018-11-01T19:50:26.701Z,11.40
2018-11-01T19:52:55.753Z,11.77
2018-11-01T19:55:24.770Z,11.67
2018-11-01T19:57:53.786Z,11.77
2018-11-01T20:00:22.812Z,11.57
2018-11-01T20:02:51.928Z,11.43
2018-11-01T20:05:20.933Z,12.27
2018-11-01T20:07:49.973Z,11.47
2018-11-01T20:10:19.042Z,11.60
2018-11-01T20:12:48.032Z,12.00
2018-11-01T20:15:17.091Z,11.20
2018-11-01T20:17:47.023Z,11.53
2018-11-01T20:20:16.103Z,11.27
2018-11-01T20:22:45.784Z,10.97
2018-11-01T20:25:14.932Z,11.60
2018-11-01T20:27:44.039Z,11.57
2018-11-01T20:30:14.448Z,12.90
2018-11-01T20:32:44.516Z,13.40
2018-11-01T20:35:14.819Z,13.67
2018-11-01T20:37:44.107Z,13.50
2018-11-01T20:40:13.116Z,14.70
2018-11-01T20:42:42.871Z,14.93
2018-11-01T20:45:13.101Z,13.70
2018-11-01T20:47:42.165Z,13.70
2018-11-01T20:50:12.334Z,14.53
2018-11-01T20:52:41.355Z,13.43
2018-11-01T20:55:10.403Z,13.77
2018-11-01T20:57:39.675Z,13.60
2018-11-01T21:00:10.669Z,14.13
2018-11-01T21:02:39.938Z,13.07
2018-11-01T21:05:09.134Z,12.83
2018-11-01T21:07:38.102Z,13.80
2018-11-01T21:10:08.316Z,13.37
2018-11-01T21:12:38.098Z,13.17
2018-11-01T21:15:08.759Z,13.07
2018-11-01T21:17:37.816Z,13.70
2018-11-01T21:20:07.105Z,14.17
2018-11-01T21:22:36.170Z,14.70
2018-11-01T21:25:05.435Z,14.77
2018-11-01T21:27:34.480Z,13.67
2018-11-01T21:30:03.825Z,15.10
2018-11-01T21:32:33.005Z,14.97
2018-11-01T21:35:02.687Z,14.87
2018-11-01T21:37:31.950Z,13.40
2018-11-01T21:40:01.272Z,13.67
2018-11-01T21:42:30.514Z,14.60
2018-11-01T21:44:59.574Z,13.93
2018-11-01T21:47:30.220Z,13.53
2018-11-01T21:49:59.242Z,13.07
2018-11-01T21:52:28.300Z,13.20
2018-11-01T21:54:58.526Z,14.00
2018-11-01T21:57:28.773Z,12.57
2018-11-01T21:59:57.769Z,13.83
2018-11-01T22:02:27.531Z,12.20
2018-11-01T22:04:56.551Z,12.03
2018-11-01T22:07:25.610Z,10.67
2018-11-01T22:09:54.637Z,11.70
2018-11-01T22:12:24.178Z,10.70
2018-11-01T22:14:53.205Z,10.63
2018-11-01T22:17:23.473Z,10.63
2018-11-01T22:19:52.543Z,10.93
2018-11-01T22:22:21.649Z,9.73
2018-11-01T22:24:50.677Z,13.00
2018-11-01T22:27:19.671Z,9.90
2018-11-01T22:29:48.746Z,9.70
2018-11-01T22:32:17.737Z,9.33
2018-11-01T22:34:46.751Z,11.03
2018-11-01T22:37:15.938Z,10.40
2018-11-01T22:39:45.005Z,9.20
2018-11-01T22:42:14.032Z,9.33
2018-11-01T22:44:44.857Z,10.90
2018-11-01T22:47:13.837Z,9.60
2018-11-01T22:49:42.863Z,8.73
2018-11-01T22:52:11.877Z,7.77
2018-11-01T22:54:40.887Z,8.90
2018-11-01T22:57:09.914Z,8.77
2018-11-01T22:59:38.948Z,8.73
2018-11-01T23:02:07.946Z,11.37
2018-11-01T23:04:36.979Z,10.90
2018-11-01T23:07:06.020Z,9.57
2018-11-01T23:09:35.045Z,8.80
2018-11-01T23:12:04.133Z,9.30
2018-11-01T23:14:34.495Z,9.40
2018-11-01T23:17:03.503Z,8.83
2018-11-01T23:19:32.513Z,9.33
2018-11-01T23:22:01.541Z,9.43
2018-11-01T23:24:30.577Z,8.80
2018-11-01T23:26:59.613Z,9.13
2018-11-01T23:29:28.658Z,9.43
2018-11-01T23:31:57.650Z,10.20
2018-11-01T23:34:26.642Z,9.27
2018-11-01T23:37:01.043Z,9.70
2018-11-01T23:39:35.459Z,11.07
2018-11-01T23:42:09.840Z,11.53
2018-11-01T23:44:44.197Z,10.07
2018-11-01T23:47:18.641Z,10.10
2018-11-01T23:49:53.157Z,12.70
2018-11-01T23:52:22.803Z,11.03
2018-11-01T23:54:52.342Z,10.67
2018-11-01T23:57:21.384Z,10.63
2018-11-01T23:59:50.397Z,11.70
